createdAt,value
2022-10-02T00:03:37.234Z,97752.25
2022-10-02T00:07:44.448Z,97755.34
2022-10-02T00:11:51.998Z,97769.88
2022-10-02T00:15:58.039Z,97810.75
2022-10-02T00:20:02.303Z,97793.56
2022-10-02T00:24:08.574Z,97816.09
2022-10-02T00:28:24.213Z,97825.56
2022-10-02T00:32:35.552Z,97833.81
2022-10-02T00:36:49.501Z,97834.16
2022-10-02T00:41:18.347Z,97827.03
2022-10-02T00:45:50.712Z,97841.50
2022-10-02T00:50:18.878Z,97840.94
2022-10-02T00:54:46.717Z,97843.75
2022-10-02T00:59:11.094Z,97859.56
2022-10-02T01:03:22.136Z,97853.75
2022-10-02T01:07:25.734Z,97868.13
2022-10-02T01:11:30.848Z,97870.97
2022-10-02T01:15:38.149Z,97864.75
2022-10-02T01:19:44.730Z,97864.84
2022-10-02T01:23:55.458Z,97875.53
2022-10-02T01:28:00.386Z,97874.16
2022-10-02T01:32:03.538Z,97867.00
2022-10-02T01:36:07.730Z,97881.75
2022-10-02T01:40:23.601Z,97887.84
2022-10-02T01:44:28.799Z,97887.75
2022-10-02T01:48:43.677Z,97894.28
2022-10-02T01:52:56.400Z,97894.00
2022-10-02T01:57:09.095Z,97892.53
2022-10-02T02:01:24.163Z,97901.53
2022-10-02T02:05:46.838Z,97902.69
2022-10-02T02:10:01.592Z,97898.28
2022-10-02T02:14:11.998Z,97900.25
2022-10-02T02:18:23.313Z,97920.06
2022-10-02T02:22:31.533Z,97917.31
2022-10-02T02:26:35.906Z,97922.41
2022-10-02T02:30:41.047Z,97927.97
2022-10-02T02:34:51.553Z,97941.22
2022-10-02T02:38:59.559Z,97936.16
2022-10-02T02:43:08.592Z,97937.81
2022-10-02T02:47:18.276Z,97936.63
2022-10-02T02:51:25.169Z,97943.50
2022-10-02T02:55:33.364Z,97944.16
2022-10-02T02:59:38.934Z,97939.88
2022-10-02T03:03:42.580Z,97952.97
2022-10-02T03:07:51.637Z,97960.81
2022-10-02T03:12:07.967Z,97954.63
2022-10-02T03:16:23.905Z,97968.31
2022-10-02T03:20:34.344Z,97964.41
2022-10-02T03:24:46.330Z,97970.13
2022-10-02T03:28:56.409Z,97964.53
2022-10-02T03:33:01.602Z,97968.78
2022-10-02T03:37:05.637Z,97971.91
2022-10-02T03:41:10.810Z,97969.09
2022-10-02T03:45:27.310Z,97973.19
2022-10-02T03:49:37.153Z,97964.00
2022-10-02T03:53:42.775Z,97954.19
2022-10-02T03:57:48.443Z,97964.94
2022-10-02T04:01:56.808Z,97973.47
2022-10-02T04:06:05.403Z,97968.72
2022-10-02T04:10:30.075Z,97960.66
2022-10-02T04:14:39.777Z,97956.91
2022-10-02T04:18:50.627Z,97966.38
2022-10-02T04:22:58.488Z,97956.75
2022-10-02T04:27:07.770Z,97950.69
2022-10-02T04:31:14.701Z,97949.22
2022-10-02T04:35:34.567Z,97946.13
2022-10-02T04:40:00.098Z,97930.25
2022-10-02T04:44:16.430Z,97942.66
2022-10-02T04:48:40.507Z,97949.19
2022-10-02T04:52:57.597Z,97948.50
2022-10-02T04:57:23.906Z,97940.94
2022-10-02T05:01:39.309Z,97943.88
2022-10-02T05:06:12.261Z,97944.47
2022-10-02T05:10:45.861Z,97940.63
2022-10-02T05:15:11.855Z,97952.84
2022-10-02T05:19:31.279Z,97950.56
2022-10-02T05:23:50.382Z,97956.06
2022-10-02T05:28:14.720Z,97962.44
2022-10-02T05:32:35.362Z,97970.75
2022-10-02T05:36:56.900Z,97958.94
2022-10-02T05:41:09.569Z,97958.94
2022-10-02T05:45:23.365Z,97945.47
2022-10-02T05:49:34.313Z,97963.47
2022-10-02T05:53:41.840Z,97971.16
2022-10-02T05:57:52.080Z,97975.41
2022-10-02T06:01:57.512Z,97965.75
2022-10-02T06:06:07.954Z,97968.84
2022-10-02T06:10:17.456Z,97964.88
2022-10-02T06:14:28.329Z,97972.56
2022-10-02T06:18:35.673Z,97975.47
2022-10-02T06:22:45.485Z,97956.16
2022-10-02T06:26:52.881Z,97976.56
2022-10-02T06:31:03.089Z,97985.72
2022-10-02T06:35:12.663Z,97968.81
2022-10-02T06:39:48.574Z,97975.69
2022-10-02T06:44:17.499Z,97989.09
2022-10-02T06:48:27.698Z,97985.13
2022-10-02T06:52:43.810Z,97998.50
2022-10-02T06:57:04.453Z,97988.94
2022-10-02T07:05:55.248Z,97993.22
2022-10-02T07:10:22.482Z,98001.53
2022-10-02T07:14:37.086Z,97998.13
2022-10-02T07:18:53.496Z,97979.81
2022-10-02T07:23:13.741Z,97986.97
2022-10-02T07:27:23.562Z,97996.28
2022-10-02T07:31:38.999Z,97998.91
2022-10-02T07:35:52.428Z,97992.03
2022-10-02T07:40:11.317Z,97996.22
2022-10-02T07:44:29.012Z,97986.81
2022-10-02T07:48:49.761Z,97990.25
2022-10-02T07:53:01.466Z,97972.69
2022-10-02T07:57:21.694Z,97984.44
2022-10-02T08:01:28.689Z,97988.66
2022-10-02T08:05:35.652Z,97987.75
2022-10-02T08:09:42.800Z,97984.59
2022-10-02T08:13:51.366Z,97984.47
2022-10-02T08:18:10.842Z,97996.59
2022-10-02T08:22:26.581Z,97997.31
2022-10-02T08:26:36.013Z,97992.72
2022-10-02T08:30:40.609Z,97987.94
2022-10-02T08:34:44.934Z,97988.72
2022-10-02T08:38:54.681Z,97988.72
2022-10-02T08:43:27.024Z,98010.38
2022-10-02T08:48:15.915Z,98010.56
2022-10-02T08:53:09.140Z,98009.91
2022-10-02T08:57:45.868Z,98022.06
2022-10-02T09:02:27.767Z,98026.69
2022-10-02T09:07:01.456Z,98021.44
2022-10-02T09:11:37.464Z,98009.91
2022-10-02T09:15:47.118Z,98010.66
2022-10-02T09:20:07.360Z,98009.84
2022-10-02T09:24:34.060Z,97990.03
2022-10-02T09:29:14.301Z,97983.66
2022-10-02T09:33:59.007Z,97973.63
2022-10-02T09:38:39.259Z,97975.81
2022-10-02T09:43:23.523Z,97977.06
2022-10-02T09:48:14.333Z,97988.53
2022-10-02T09:53:12.391Z,98002.84
2022-10-02T09:58:02.757Z,97991.91
2022-10-02T10:02:36.877Z,97981.19
2022-10-02T10:07:24.807Z,97980.91
2022-10-02T10:12:02.909Z,97985.53
2022-10-02T10:17:06.376Z,97977.13
2022-10-02T10:21:36.521Z,97975.13
2022-10-02T10:25:52.247Z,97967.25
2022-10-02T10:30:24.857Z,97962.81
2022-10-02T10:34:54.118Z,97970.59
2022-10-02T10:39:07.936Z,97961.31
2022-10-02T10:43:58.406Z,97958.88
2022-10-02T10:48:24.895Z,97951.25
2022-10-02T10:52:47.316Z,97949.88
2022-10-02T10:56:56.536Z,97942.50
2022-10-02T11:01:14.333Z,97940.34
2022-10-02T11:05:55.030Z,97944.94
2022-10-02T11:10:22.356Z,97936.47
2022-10-02T11:14:35.623Z,97922.31
2022-10-02T11:19:03.985Z,97910.19
2022-10-02T11:23:28.328Z,97927.63
2022-10-02T11:27:59.188Z,97917.22
2022-10-02T11:32:33.867Z,97905.81
2022-10-02T11:36:58.766Z,97884.81
2022-10-02T11:41:25.417Z,97893.00
2022-10-02T11:46:16.683Z,97886.66
2022-10-02T11:50:44.181Z,97876.03
2022-10-02T11:55:01.157Z,97872.16
2022-10-02T11:59:27.996Z,97874.47
2022-10-02T12:03:39.132Z,97862.69
2022-10-02T12:07:53.906Z,97865.50
2022-10-02T12:12:08.005Z,97879.88
2022-10-02T12:16:21.749Z,97866.44
2022-10-02T12:20:56.266Z,97863.50
2022-10-02T12:25:35.233Z,97852.50
2022-10-02T12:29:52.621Z,97846.38
2022-10-02T12:34:01.427Z,97841.50
2022-10-02T12:38:18.342Z,97833.81
2022-10-02T12:43:03.159Z,97830.56
2022-10-02T12:47:50.163Z,97818.56
2022-10-02T12:52:29.290Z,97811.06
2022-10-02T12:56:59.025Z,97814.72
2022-10-02T13:01:36.159Z,97799.94
2022-10-02T13:06:24.078Z,97795.28
2022-10-02T13:10:32.654Z,97801.81
2022-10-02T13:14:56.885Z,97803.09
2022-10-02T13:19:10.541Z,97801.06
2022-10-02T13:23:26.547Z,97791.00
2022-10-02T13:27:40.796Z,97761.50
2022-10-02T13:31:59.658Z,97766.78
2022-10-02T13:36:19.577Z,97760.56
2022-10-02T13:40:31.658Z,97755.56
2022-10-02T13:44:44.430Z,97753.72
2022-10-02T13:49:00.169Z,97754.56
2022-10-02T13:53:21.089Z,97751.47
2022-10-02T13:57:44.425Z,97742.56
2022-10-02T14:02:31.709Z,97753.03
2022-10-02T14:06:40.557Z,97759.06
2022-10-02T14:11:00.683Z,97773.16
2022-10-02T14:15:32.318Z,97787.41
2022-10-02T14:20:18.837Z,97773.59
2022-10-02T14:24:57.976Z,97769.31
2022-10-02T14:29:14.070Z,97766.81
2022-10-02T14:33:30.853Z,97767.56
2022-10-02T14:38:07.914Z,97745.06
2022-10-02T14:42:32.653Z,97727.25
2022-10-02T14:46:53.317Z,97728.66
2022-10-02T14:51:16.395Z,97715.69
2022-10-02T14:55:31.409Z,97727.00
2022-10-02T15:00:10.863Z,97754.84
2022-10-02T15:04:31.866Z,97783.22
2022-10-02T15:08:41.941Z,97797.25
2022-10-02T15:12:55.686Z,97791.31
2022-10-02T15:17:23.293Z,97790.44
2022-10-02T15:21:30.967Z,97780.66
2022-10-02T15:26:10.177Z,97762.03
2022-10-02T15:30:19.627Z,97760.13
2022-10-02T15:34:34.953Z,97747.69
2022-10-02T15:39:14.171Z,97762.78
2022-10-02T15:43:39.815Z,97766.59
2022-10-02T15:47:58.857Z,97749.97
2022-10-02T15:52:11.392Z,97759.22
2022-10-02T15:56:40.056Z,97748.09
2022-10-02T16:01:09.363Z,97752.63
2022-10-02T16:05:29.969Z,97761.91
2022-10-02T16:09:47.200Z,97746.19
2022-10-02T16:14:02.827Z,97750.53
2022-10-02T16:18:21.281Z,97766.19
2022-10-02T16:22:44.009Z,97764.66
2022-10-02T16:27:21.439Z,97764.00
2022-10-02T16:31:45.918Z,97738.53
2022-10-02T16:36:04.268Z,97765.72
2022-10-02T16:40:27.444Z,97773.06
2022-10-02T16:45:06.800Z,97772.69
2022-10-02T16:49:24.285Z,97763.75
2022-10-02T16:53:33.874Z,97784.38
2022-10-02T16:57:55.362Z,97801.06
2022-10-02T17:02:17.677Z,97810.41
2022-10-02T17:06:33.485Z,97817.81
2022-10-02T17:11:06.274Z,97807.69
2022-10-02T17:15:19.359Z,97819.81
2022-10-02T17:19:28.192Z,97817.19
2022-10-02T17:23:42.488Z,97828.03
2022-10-02T17:27:58.745Z,97821.31
2022-10-02T17:32:03.110Z,97826.56
2022-10-02T17:36:19.525Z,97831.00
2022-10-02T17:40:27.767Z,97854.59
2022-10-02T17:44:45.529Z,97857.41
2022-10-02T17:48:57.573Z,97852.34
2022-10-02T17:53:28.762Z,97825.28
2022-10-02T17:57:54.461Z,97866.44
2022-10-02T18:02:11.918Z,97871.69
2022-10-02T18:06:28.436Z,97873.47
2022-10-02T18:10:42.401Z,97876.28
2022-10-02T18:15:02.074Z,97872.66
2022-10-02T18:19:39.899Z,97880.53
2022-10-02T18:24:01.228Z,97875.28
2022-10-02T18:28:17.627Z,97877.63
2022-10-02T18:32:37.282Z,97872.00
2022-10-02T18:36:56.741Z,97876.41
2022-10-02T18:41:21.047Z,97882.66
2022-10-02T18:45:45.196Z,97893.50
2022-10-02T18:50:08.308Z,97884.53
2022-10-02T18:54:23.544Z,97886.81
2022-10-02T18:58:43.354Z,97898.44
2022-10-02T19:07:05.090Z,97869.66
2022-10-02T19:11:27.281Z,97875.91
2022-10-02T19:15:33.459Z,97893.25
2022-10-02T19:19:37.091Z,97896.69
2022-10-02T19:23:47.504Z,97893.41
2022-10-02T19:27:55.590Z,97914.53
2022-10-02T19:32:01.631Z,97920.41
2022-10-02T19:36:07.259Z,97928.91
2022-10-02T19:40:18.478Z,97931.88
2022-10-02T19:44:29.088Z,97924.38
2022-10-02T19:48:35.045Z,97943.63
2022-10-02T19:52:46.888Z,97949.53
2022-10-02T19:56:54.163Z,97937.13
2022-10-02T20:00:59.654Z,97941.66
2022-10-02T20:05:07.792Z,97935.41
2022-10-02T20:09:19.255Z,97936.06
2022-10-02T20:13:29.338Z,97932.81
2022-10-02T20:17:35.386Z,97936.13
2022-10-02T20:21:42.755Z,97939.03
2022-10-02T20:25:51.832Z,97948.34
2022-10-02T20:30:01.767Z,97943.94
2022-10-02T20:34:13.334Z,97949.19
2022-10-02T20:38:24.367Z,97952.41
2022-10-02T20:42:35.654Z,97948.53
2022-10-02T20:47:37.476Z,97951.78
2022-10-02T20:52:13.442Z,97962.91
2022-10-02T20:56:40.617Z,97955.69
2022-10-02T21:01:01.206Z,97946.56
2022-10-02T21:05:24.578Z,97947.00
2022-10-02T21:09:53.735Z,97949.63
2022-10-02T21:14:38.897Z,97956.47
2022-10-02T21:19:06.875Z,97966.16
2022-10-02T21:23:37.853Z,97970.59
2022-10-02T21:28:32.669Z,97981.91
2022-10-02T21:32:47.621Z,97975.47
2022-10-02T21:36:58.715Z,97982.69
2022-10-02T21:41:29.798Z,97980.91
2022-10-02T21:46:26.560Z,97973.38
2022-10-02T21:51:15.783Z,97988.28
2022-10-02T21:55:54.538Z,97981.66
2022-10-02T22:00:22.362Z,98001.59
2022-10-02T22:04:47.626Z,98009.06
2022-10-02T22:09:05.148Z,98005.66
2022-10-02T22:13:25.468Z,98001.22
2022-10-02T22:17:43.449Z,98003.22
2022-10-02T22:22:01.875Z,98004.81
2022-10-02T22:26:31.706Z,98007.78
2022-10-02T22:30:44.834Z,98012.75
2022-10-02T22:34:56.639Z,98021.97
2022-10-02T22:39:06.929Z,98030.63
2022-10-02T22:43:20.848Z,98039.00
2022-10-02T22:47:31.686Z,98032.81
2022-10-02T22:51:41.770Z,98028.25
2022-10-02T22:55:50.579Z,98028.59
2022-10-02T23:00:00.084Z,98030.56
2022-10-02T23:04:10.078Z,98032.22
2022-10-02T23:08:22.615Z,98041.53
2022-10-02T23:12:38.548Z,98035.13
2022-10-02T23:16:49.482Z,98035.13
2022-10-02T23:21:03.304Z,98040.84
2022-10-02T23:25:19.961Z,98048.19
2022-10-02T23:29:33.111Z,98052.44
2022-10-02T23:33:52.207Z,98047.72
2022-10-02T23:38:00.591Z,98055.06
2022-10-02T23:42:08.535Z,98061.59
2022-10-02T23:46:18.536Z,98060.41
2022-10-02T23:50:26.290Z,98065.31
2022-10-02T23:54:46.812Z,98058.13
2022-10-02T23:59:09.736Z,98064.06
